Time;durP1;ratioP1;P1;durP2;ratioP2;P2;SDS_P1;SDS_P2;PMS_P1;PMS_P2;Temp;Humidity;BMP_temperature;BMP_pressure;BME280_temperature;BME280_humidity;BME280_pressure;Samples;Min_cycle;Max_cycle;Signal;HPM_P1;HPM_P2
2021/01/21 00:01:57;;;;;;;9.20;2.38;;;;;;;5.06;70.00;99296.22;4987310;28;20589;-61
2021/01/21 00:04:23;;;;;;;2.88;1.77;;;;;;;5.05;70.36;99292.81;4987356;28;20046;-63
2021/01/21 00:06:50;;;;;;;4.45;1.83;;;;;;;5.24;69.52;99294.13;4986708;28;20499;-61
2021/01/21 00:09:16;;;;;;;2.80;1.90;;;;;;;5.05;70.79;99291.97;4987227;28;20062;-62
2021/01/21 00:11:42;;;;;;;4.20;1.90;;;;;;;5.03;69.58;99291.06;4986968;28;20061;-63
2021/01/21 00:14:09;;;;;;;2.50;1.98;;;;;;;4.77;71.13;99285.34;4987784;28;20058;-63
2021/01/21 00:16:35;;;;;;;3.42;1.83;;;;;;;4.54;72.61;99285.56;4986836;28;20054;-63
2021/01/21 00:19:03;;;;;;;3.25;2.08;;;;;;;4.38;72.61;99291.03;4986826;28;20046;-61
2021/01/21 00:21:29;;;;;;;2.65;2.00;;;;;;;4.73;72.26;99288.59;4986730;28;20058;-62
2021/01/21 00:23:58;;;;;;;2.83;1.80;;;;;;;4.48;72.97;99282.84;4986339;28;20061;-62
2021/01/21 00:26:25;;;;;;;3.65;2.10;;;;;;;4.15;75.14;99275.19;4987065;28;20117;-61
2021/01/21 00:28:52;;;;;;;3.22;1.98;;;;;;;4.00;75.52;99278.16;4987324;28;20045;-62
2021/01/21 00:31:18;;;;;;;2.88;1.98;;;;;;;4.10;74.66;99266.59;4988010;28;20050;-61
2021/01/21 00:33:45;;;;;;;3.58;2.30;;;;;;;4.10;74.77;99271.66;4986837;28;20136;-62
2021/01/21 00:36:13;;;;;;;3.50;2.17;;;;;;;4.30;73.77;99272.25;4986698;28;20635;-63
2021/01/21 00:38:40;;;;;;;3.25;2.38;;;;;;;4.25;74.48;99253.50;4987028;28;20077;-63
2021/01/21 00:41:06;;;;;;;3.45;2.08;;;;;;;4.43;73.37;99253.16;4986754;28;20096;-62
2021/01/21 00:43:33;;;;;;;3.58;1.98;;;;;;;4.15;74.15;99264.19;4986291;28;20078;-62
2021/01/21 00:45:59;;;;;;;3.08;1.88;;;;;;;4.15;74.98;99265.06;4986448;28;20113;-62
2021/01/21 00:48:27;;;;;;;4.50;2.50;;;;;;;3.90;74.92;99266.03;4986340;28;20058;-62
2021/01/21 00:50:54;;;;;;;3.65;2.03;;;;;;;3.75;76.09;99256.31;4986399;28;20078;-64
2021/01/21 00:53:20;;;;;;;3.88;1.92;;;;;;;3.94;75.29;99255.19;4986593;28;20522;-63
2021/01/21 00:55:47;;;;;;;3.95;1.95;;;;;;;4.00;74.50;99252.81;4986476;28;20101;-62
2021/01/21 00:58:13;;;;;;;4.00;2.22;;;;;;;4.27;73.58;99249.34;4985715;28;20050;-59
2021/01/21 01:00:43;;;;;;;2.53;2.03;;;;;;;4.11;73.60;99254.78;4986037;28;20054;-62
2021/01/21 01:03:09;;;;;;;5.47;2.08;;;;;;;4.28;73.29;99254.44;4986726;28;20565;-63
2021/01/21 01:05:36;;;;;;;2.55;1.92;;;;;;;3.93;74.04;99255.13;4986099;28;20047;-62
2021/01/21 01:08:03;;;;;;;3.38;2.00;;;;;;;3.61;76.22;99256.75;4986155;28;20050;-63
2021/01/21 01:10:29;;;;;;;3.60;2.08;;;;;;;3.46;77.32;99257.09;4985994;28;20556;-63
2021/01/21 01:12:56;;;;;;;4.40;2.30;;;;;;;3.70;77.32;99251.94;4985284;28;20109;-63
2021/01/21 01:15:30;;;;;;;2.95;2.05;;;;;;;3.47;77.52;99251.25;4985509;28;20105;-62
2021/01/21 01:17:56;;;;;;;4.90;2.33;;;;;;;3.44;77.75;99241.88;4984972;28;20101;-63
2021/01/21 01:20:23;;;;;;;4.68;2.60;;;;;;;3.65;75.75;99236.63;4985275;28;20587;-62
2021/01/21 01:22:54;;;;;;;3.42;2.08;;;;;;;3.67;76.00;99231.59;4985260;28;20100;-58
2021/01/21 01:25:21;;;;;;;4.10;2.10;;;;;;;3.69;76.29;99230.81;4985654;28;20100;-61
2021/01/21 01:27:48;;;;;;;7.00;2.13;;;;;;;4.04;74.05;99231.84;4984164;28;20065;-63
2021/01/21 01:30:16;;;;;;;3.53;2.10;;;;;;;4.29;73.81;99235.03;4985246;28;20161;-61
2021/01/21 01:32:47;;;;;;;2.78;1.98;;;;;;;4.12;73.91;99223.59;4985187;28;20490;-62
2021/01/21 01:35:15;;;;;;;4.63;2.15;;;;;;;4.40;72.73;99220.16;4980813;28;20061;-59
2021/01/21 01:37:42;;;;;;;4.93;1.90;;;;;;;4.64;70.87;99223.31;4984791;28;20435;-61
2021/01/21 01:40:10;;;;;;;3.10;1.60;;;;;;;4.65;71.23;99222.47;4985474;28;20502;-58
2021/01/21 01:42:37;;;;;;;3.20;1.83;;;;;;;4.34;71.50;99203.97;4984817;28;20057;-62
2021/01/21 01:45:05;;;;;;;3.30;1.70;;;;;;;4.42;71.63;99206.69;4985140;28;20042;-59
2021/01/21 01:47:33;;;;;;;2.55;1.95;;;;;;;4.52;70.50;99206.09;4984821;28;20043;-61
2021/01/21 01:50:00;;;;;;;4.28;2.00;;;;;;;4.29;72.18;99199.56;4985016;28;20469;-60
2021/01/21 01:52:27;;;;;;;3.67;2.00;;;;;;;4.52;71.10;99198.47;4984730;28;20137;-61
2021/01/21 01:54:54;;;;;;;2.05;1.88;;;;;;;4.49;70.95;99200.97;4984610;28;20054;-59
2021/01/21 01:57:23;;;;;;;4.35;2.00;;;;;;;4.52;70.50;99206.09;4984077;28;20054;-62
2021/01/21 01:59:54;;;;;;;3.17;2.30;;;;;;;4.71;69.89;99202.34;4982819;28;20503;-60
2021/01/21 02:02:21;;;;;;;3.65;2.17;;;;;;;4.67;69.74;99207.28;4984681;28;20049;-60
2021/01/21 02:04:47;;;;;;;5.35;2.50;;;;;;;4.64;70.02;99192.88;4983481;28;20478;-61
2021/01/21 02:07:14;;;;;;;3.70;2.08;;;;;;;4.49;70.90;99188.28;4984353;28;20068;-60
2021/01/21 02:09:42;;;;;;;2.28;1.60;;;;;;;4.63;70.57;99183.56;4983542;28;20511;-58
2021/01/21 02:12:21;;;;;;;3.70;1.73;;;;;;;4.53;71.30;99186.66;4984814;28;20054;-61
2021/01/21 02:15:19;;;;;;;2.10;1.50;;;;;;;4.50;70.28;99184.94;4983156;28;20073;-59
2021/01/21 02:17:58;;;;;;;2.17;1.48;;;;;;;4.55;69.55;99178.28;4983700;28;20042;-60
2021/01/21 02:21:00;;;;;;;2.75;1.63;;;;;;;4.71;69.32;99178.66;4984336;28;20141;-61
2021/01/21 02:23:29;;;;;;;2.45;1.92;;;;;;;4.95;67.53;99174.22;4981029;28;20050;-61
2021/01/21 02:26:05;;;;;;;2.60;1.65;;;;;;;4.81;68.10;99175.56;4983316;28;20052;-61
2021/01/21 02:29:01;;;;;;;2.78;1.38;;;;;;;4.85;68.43;99182.41;4983769;28;20092;-64
2021/01/21 02:31:46;;;;;;;;;;;;;;;5.01;67.44;99176.88;4982146;28;20046;-60
2021/01/21 02:34:20;;;;;;;4.45;1.40;;;;;;;4.89;68.16;99173.19;4979373;28;19933;-58
2021/01/21 02:36:54;;;;;;;2.80;1.50;;;;;;;5.01;66.99;99168.41;4983602;28;20832;-61
2021/01/21 02:39:22;;;;;;;2.50;1.45;;;;;;;4.94;67.62;99164.00;4984035;28;20050;-61
2021/01/21 02:41:49;;;;;;;3.72;1.75;;;;;;;4.90;67.79;99163.09;4983092;28;20070;-58
2021/01/21 02:44:15;;;;;;;2.17;1.35;;;;;;;4.57;68.94;99148.75;4983836;28;20510;-60
2021/01/21 02:46:45;;;;;;;3.22;1.48;;;;;;;4.69;68.68;99150.75;4983553;28;20050;-61
2021/01/21 02:49:12;;;;;;;1.60;1.20;;;;;;;4.89;67.88;99147.81;4978773;28;20050;-61
2021/01/21 02:52:05;;;;;;;1.85;1.05;;;;;;;4.83;67.28;99149.41;4983898;28;20046;-54
2021/01/21 02:54:49;;;;;;;1.92;1.17;;;;;;;5.07;66.27;99144.03;4973134;28;20129;-54
2021/01/21 02:57:34;;;;;;;1.92;1.10;;;;;;;5.15;65.96;99139.13;4979290;28;20121;-60
2021/01/21 03:00:05;;;;;;;3.58;1.30;;;;;;;5.20;65.93;99142.63;4982228;28;20799;-60
2021/01/21 03:02:36;;;;;;;1.65;1.20;;;;;;;5.14;66.02;99151.81;4983455;28;20050;-63
2021/01/21 03:05:05;;;;;;;3.75;1.55;;;;;;;5.14;66.29;99146.72;4982470;28;20065;-57
2021/01/21 03:07:35;;;;;;;2.88;1.60;;;;;;;5.37;65.15;99148.09;4966534;28;20066;-61
2021/01/21 03:10:05;;;;;;;2.45;1.27;;;;;;;5.36;64.85;99129.47;4981698;28;20054;-61
2021/01/21 03:12:31;;;;;;;2.53;1.30;;;;;;;5.48;64.55;99139.00;4983028;28;20056;-62
2021/01/21 03:14:59;;;;;;;3.50;1.75;;;;;;;5.53;64.18;99134.03;4983506;28;20065;-59
2021/01/21 03:17:28;;;;;;;2.97;1.48;;;;;;;5.41;64.71;99126.13;4983140;28;20054;-60
2021/01/21 03:19:55;;;;;;;2.25;1.60;;;;;;;5.66;64.20;99132.59;4983238;28;20074;-61
2021/01/21 03:22:22;;;;;;;2.15;1.40;;;;;;;5.60;64.41;99128.25;4982937;28;20038;-62
2021/01/21 03:24:48;;;;;;;2.65;1.63;;;;;;;5.77;63.99;99128.56;4982445;28;20057;-58
2021/01/21 03:27:15;;;;;;;4.30;2.85;;;;;;;5.72;64.23;99131.03;4983015;28;20060;-61
2021/01/21 03:29:41;;;;;;;1.65;1.17;;;;;;;5.71;64.32;99121.69;4983061;28;20048;-57
2021/01/21 03:32:08;;;;;;;2.22;1.50;;;;;;;5.95;63.36;99123.03;4983542;28;20050;-61
2021/01/21 03:34:34;;;;;;;2.92;1.92;;;;;;;6.01;62.61;99126.56;4983415;28;20058;-61
2021/01/21 03:37:01;;;;;;;2.50;1.42;;;;;;;6.04;63.26;99125.75;4981911;28;20112;-61
2021/01/21 03:39:28;;;;;;;2.50;1.30;;;;;;;6.07;63.25;99124.13;4983378;28;20054;-58
2021/01/21 03:41:54;;;;;;;4.43;1.70;;;;;;;5.95;63.44;99117.94;4983127;28;20055;-61
2021/01/21 03:44:21;;;;;;;2.25;1.67;;;;;;;6.08;63.09;99122.44;4983274;28;20054;-61
2021/01/21 03:46:47;;;;;;;2.53;1.60;;;;;;;6.00;63.65;99123.97;4982904;28;20750;-59
2021/01/21 03:49:14;;;;;;;2.42;1.33;;;;;;;6.11;63.34;99110.66;4983208;28;20407;-60
2021/01/21 03:51:41;;;;;;;2.60;1.67;;;;;;;5.99;63.74;99112.94;4983157;28;20046;-61
2021/01/21 03:54:07;;;;;;;3.72;1.73;;;;;;;6.11;63.20;99108.09;4983179;28;20050;-58
2021/01/21 03:56:34;;;;;;;2.03;1.83;;;;;;;5.99;63.53;99114.63;4982818;28;20422;-59
2021/01/21 03:59:00;;;;;;;5.32;1.60;;;;;;;6.03;63.36;99111.34;4982702;28;20529;-62
2021/01/21 04:01:27;;;;;;;2.00;1.25;;;;;;;5.92;63.37;99095.06;4983080;28;20056;-61
2021/01/21 04:03:54;;;;;;;2.88;1.50;;;;;;;5.98;63.16;99106.16;4982626;28;20046;-61
2021/01/21 04:06:24;;;;;;;4.60;1.60;;;;;;;6.04;63.08;99093.56;4982552;28;20058;-61
2021/01/21 04:08:50;;;;;;;3.10;1.40;;;;;;;6.07;62.88;99087.69;4982712;28;20054;-62
2021/01/21 04:11:17;;;;;;;4.03;1.77;;;;;;;6.01;63.46;99088.44;4982810;28;20046;-63
2021/01/21 04:13:43;;;;;;;2.30;1.60;;;;;;;6.09;62.91;99081.78;4982528;28;20050;-61
2021/01/21 04:16:10;;;;;;;3.42;1.92;;;;;;;6.00;63.55;99073.16;4978171;28;20053;-60
2021/01/21 04:18:36;;;;;;;4.05;1.90;;;;;;;6.01;63.10;99078.28;4983115;28;20579;-61
2021/01/21 04:21:03;;;;;;;3.97;2.00;;;;;;;5.99;63.30;99074.00;4982843;28;20054;-61
2021/01/21 04:23:29;;;;;;;2.63;1.88;;;;;;;5.97;63.80;99073.13;4983196;28;20053;-62
2021/01/21 04:25:56;;;;;;;3.33;2.08;;;;;;;5.93;64.28;99062.03;4982388;28;20499;-58
2021/01/21 04:28:22;;;;;;;5.32;2.28;;;;;;;5.81;64.17;99059.25;4983141;28;20046;-61
2021/01/21 04:30:49;;;;;;;2.88;2.05;;;;;;;5.85;64.39;99051.69;4982777;28;20057;-59
2021/01/21 04:33:16;;;;;;;3.75;2.13;;;;;;;5.70;65.19;99051.44;4984478;28;20509;-62
2021/01/21 04:35:43;;;;;;;4.20;2.38;;;;;;;5.96;63.84;99038.38;4986858;28;20050;-62
2021/01/21 04:38:09;;;;;;;4.18;2.33;;;;;;;5.98;63.24;99041.81;4987234;28;20060;-61
2021/01/21 04:40:36;;;;;;;3.63;2.17;;;;;;;6.09;63.49;99030.97;4986636;28;20046;-61
2021/01/21 04:43:03;;;;;;;3.58;2.25;;;;;;;6.09;63.32;99043.69;4986955;28;20070;-62
2021/01/21 04:45:29;;;;;;;3.45;2.67;;;;;;;6.22;63.01;99037.13;4986495;28;20080;-62
2021/01/21 04:47:57;;;;;;;4.68;2.50;;;;;;;6.22;63.03;99034.59;4984295;28;20443;-59
2021/01/21 04:50:24;;;;;;;4.93;2.88;;;;;;;6.16;62.84;99036.19;4986140;28;20051;-61
2021/01/21 04:52:52;;;;;;;5.97;2.83;;;;;;;6.18;62.87;99037.91;4986207;28;20120;-57
2021/01/21 04:55:22;;;;;;;4.30;2.85;;;;;;;6.12;63.12;99030.19;4986760;28;20054;-62
2021/01/21 04:57:56;;;;;;;7.07;3.17;;;;;;;6.25;62.79;99021.94;4984361;28;20050;-55
2021/01/21 05:00:24;;;;;;;4.70;2.67;;;;;;;6.19;62.96;99026.91;4988365;28;20046;-60
2021/01/21 05:02:53;;;;;;;4.80;3.08;;;;;;;6.17;62.51;99010.78;4986577;28;20930;-56
2021/01/21 05:05:20;;;;;;;9.07;3.22;;;;;;;6.38;61.99;99017.91;4986322;28;20052;-54
2021/01/21 05:07:48;;;;;;;5.18;3.15;;;;;;;6.35;61.81;99016.16;4985754;28;20046;-59
2021/01/21 05:10:16;;;;;;;6.63;3.20;;;;;;;6.27;61.46;99010.09;4986271;28;20042;-59
2021/01/21 05:12:47;;;;;;;7.28;3.65;;;;;;;6.34;61.47;99013.59;4986689;28;20072;-57
2021/01/21 05:15:14;;;;;;;5.43;3.50;;;;;;;6.41;62.00;99002.69;4986956;28;20050;-57
2021/01/21 05:17:42;;;;;;;8.48;3.80;;;;;;;6.38;61.44;98995.03;4986813;28;20054;-55
2021/01/21 05:20:10;;;;;;;4.25;3.10;;;;;;;6.43;62.01;98997.63;4986143;28;20042;-58
2021/01/21 05:22:40;;;;;;;5.72;3.78;;;;;;;6.35;61.34;99000.06;4986123;28;20049;-58
2021/01/21 05:25:08;;;;;;;6.90;3.85;;;;;;;6.47;61.45;98996.81;4986248;28;20046;-57
2021/01/21 05:27:35;;;;;;;6.03;3.38;;;;;;;6.21;62.28;98996.44;4985690;28;20128;-57
2021/01/21 05:30:03;;;;;;;4.43;2.85;;;;;;;6.29;61.80;98990.66;4986044;28;20050;-57
2021/01/21 05:32:32;;;;;;;7.40;3.20;;;;;;;6.34;61.55;98996.66;4985653;28;20046;-58
2021/01/21 05:34:59;;;;;;;4.78;3.10;;;;;;;6.40;60.97;98997.59;4985277;28;20511;-56
2021/01/21 05:37:26;;;;;;;6.00;3.13;;;;;;;6.49;60.68;98987.56;4985562;28;20076;-61
2021/01/21 05:39:54;;;;;;;7.82;3.47;;;;;;;6.50;61.07;98987.56;4969694;28;20054;-56
2021/01/21 05:42:23;;;;;;;6.03;3.75;;;;;;;6.30;62.54;98987.28;4985377;28;20147;-58
2021/01/21 05:44:49;;;;;;;4.40;3.00;;;;;;;6.37;61.80;98993.28;4984629;28;20046;-60
2021/01/21 05:47:16;;;;;;;4.60;3.22;;;;;;;6.35;61.66;98994.97;4985118;28;20683;-55
2021/01/21 05:49:49;;;;;;;6.25;2.97;;;;;;;6.38;61.04;98997.56;4984837;28;20129;-58
2021/01/21 05:52:19;;;;;;;6.57;3.13;;;;;;;6.45;61.22;98994.28;4980898;28;20052;-61
2021/01/21 05:54:47;;;;;;;6.28;3.60;;;;;;;6.41;60.58;98997.59;4985094;28;20793;-52
2021/01/21 05:57:15;;;;;;;5.07;3.33;;;;;;;6.43;60.94;98995.09;4984589;28;20057;-55
2021/01/21 05:59:43;;;;;;;4.10;3.28;;;;;;;6.51;60.68;98988.41;4985053;28;20061;-56
2021/01/21 06:02:10;;;;;;;5.10;3.60;;;;;;;6.56;59.79;98990.22;4982377;28;20050;-53
2021/01/21 06:04:37;;;;;;;5.95;3.33;;;;;;;6.60;59.46;98991.09;4984689;28;20054;-52
2021/01/21 06:07:04;;;;;;;5.40;3.22;;;;;;;6.75;58.92;98995.53;4984662;28;20481;-56
2021/01/21 06:09:32;;;;;;;4.20;3.20;;;;;;;6.79;58.54;98993.03;4983473;28;20507;-59
2021/01/21 06:12:01;;;;;;;4.60;3.22;;;;;;;6.92;58.34;98988.13;4983353;28;20057;-56
2021/01/21 06:14:28;;;;;;;5.82;3.50;;;;;;;6.91;58.30;98991.50;4986632;28;20050;-54
2021/01/21 06:16:58;;;;;;;4.20;3.17;;;;;;;6.86;58.35;98997.38;4991001;28;20054;-56
2021/01/21 06:19:25;;;;;;;4.30;3.20;;;;;;;6.93;58.67;98983.03;4993386;28;20050;-59
2021/01/21 06:21:56;;;;;;;4.70;3.55;;;;;;;6.93;58.18;99000.00;4990737;28;20084;-58
2021/01/21 06:24:28;;;;;;;5.30;3.15;;;;;;;6.89;58.43;98984.72;4984798;28;20126;-54
2021/01/21 06:26:58;;;;;;;5.78;3.60;;;;;;;6.93;58.10;98994.91;4984509;28;20158;-54
2021/01/21 06:29:27;;;;;;;5.68;3.78;;;;;;;6.86;58.03;98979.59;4984466;28;20061;-61
2021/01/21 06:31:58;;;;;;;6.03;3.67;;;;;;;6.95;58.09;98988.19;4984180;28;20050;-59
2021/01/21 06:34:27;;;;;;;5.03;3.65;;;;;;;6.81;58.31;98990.53;4984550;28;20173;-60
2021/01/21 06:37:11;;;;;;;4.78;3.60;;;;;;;6.82;58.08;98987.16;4984025;28;20070;-60
2021/01/21 06:40:07;;;;;;;7.03;3.70;;;;;;;6.81;58.46;98991.38;4983961;28;20503;-59
2021/01/21 06:42:41;;;;;;;4.47;3.38;;;;;;;6.79;58.82;98987.94;4982065;28;20042;-56
2021/01/21 06:45:16;;;;;;;4.57;3.45;;;;;;;6.67;59.18;98990.34;4984384;28;20104;-56
2021/01/21 06:47:43;;;;;;;5.07;3.15;;;;;;;6.84;58.62;98986.34;4983713;28;20057;-56
2021/01/21 06:50:10;;;;;;;5.80;3.42;;;;;;;6.72;58.73;98987.88;4984414;28;20065;-58
2021/01/21 06:52:38;;;;;;;5.30;3.47;;;;;;;6.85;58.33;98987.19;4983863;28;20061;-62
2021/01/21 06:55:09;;;;;;;6.05;3.80;;;;;;;6.78;58.94;98988.78;4984147;28;20065;-58
2021/01/21 06:57:36;;;;;;;6.05;3.80;;;;;;;6.86;58.73;98979.59;4983104;28;20050;-56
2021/01/21 07:00:39;;;;;;;9.05;3.80;;;;;;;6.86;58.59;98971.94;4983200;28;20057;-57
2021/01/21 07:03:07;;;;;;;6.65;3.80;;;;;;;6.72;59.49;98965.84;4958423;28;20514;-60
2021/01/21 07:05:33;;;;;;;8.00;3.80;;;;;;;6.73;59.29;98966.69;4984062;28;20050;-60
2021/01/21 07:08:02;;;;;;;6.57;3.60;;;;;;;6.85;58.84;98970.25;4982398;28;20499;-59
2021/01/21 07:10:35;;;;;;;7.97;4.18;;;;;;;6.88;59.28;98961.78;4979434;28;20042;-61
2021/01/21 07:13:23;;;;;;;7.95;3.50;;;;;;;6.98;58.92;98962.75;4982164;28;20598;-59
2021/01/21 07:15:58;;;;;;;5.65;3.72;;;;;;;7.01;58.62;98966.19;4985642;28;20123;-57
2021/01/21 07:18:37;;;;;;;5.30;4.13;;;;;;;6.91;59.10;98959.28;4990709;28;20144;-59
2021/01/21 07:21:07;;;;;;;6.35;3.53;;;;;;;6.96;58.50;98954.25;4991009;28;20053;-55
2021/01/21 07:23:44;;;;;;;6.13;4.10;;;;;;;7.04;58.68;98945.88;4988688;28;20043;-59
2021/01/21 07:26:25;;;;;;;6.60;3.80;;;;;;;7.08;58.49;98945.09;4991992;28;20052;-57
2021/01/21 07:29:09;;;;;;;6.82;3.38;;;;;;;7.14;58.13;98941.75;4991068;28;20133;-57
2021/01/21 07:31:51;;;;;;;5.15;3.30;;;;;;;7.25;57.74;98934.22;4988515;28;20043;-60
2021/01/21 07:34:45;;;;;;;7.88;3.22;;;;;;;7.24;57.28;98938.47;4991761;28;20053;-59
2021/01/21 07:37:24;;;;;;;5.57;3.40;;;;;;;7.25;57.41;98947.78;4989104;28;20140;-61
2021/01/21 07:39:56;;;;;;;5.43;2.67;;;;;;;7.32;57.21;98936.84;4976181;28;20057;-59
2021/01/21 07:42:38;;;;;;;9.73;3.53;;;;;;;7.38;57.72;98943.69;4992314;28;20100;-62
2021/01/21 07:45:14;;;;;;;4.97;3.22;;;;;;;7.45;57.08;98947.19;4990244;28;20061;-61
2021/01/21 07:47:43;;;;;;;5.85;3.90;;;;;;;7.43;57.37;98946.28;4982814;28;20100;-62
2021/01/21 07:50:19;;;;;;;5.97;3.47;;;;;;;7.40;57.62;98936.94;4986361;28;20105;-63
2021/01/21 07:52:50;;;;;;;4.45;3.22;;;;;;;7.31;58.30;98935.16;4990915;28;20056;-61
2021/01/21 07:55:38;;;;;;;4.75;2.97;;;;;;;7.44;57.37;98933.59;4991496;28;20054;-60
2021/01/21 07:58:23;;;;;;;5.18;2.80;;;;;;;7.55;56.81;98938.78;4989662;28;20046;-61
2021/01/21 08:01:01;;;;;;;5.63;3.33;;;;;;;7.48;56.84;98940.41;4974323;28;20112;-62
2021/01/21 08:03:35;;;;;;;4.13;2.70;;;;;;;7.60;57.13;98937.13;4993006;28;20057;-60
2021/01/21 08:06:14;;;;;;;4.15;2.83;;;;;;;7.66;57.57;98934.63;4989330;28;20049;-59
2021/01/21 08:08:44;;;;;;;3.85;2.50;;;;;;;7.58;57.63;98928.59;4991286;28;20048;-59
2021/01/21 08:11:16;;;;;;;4.78;2.80;;;;;;;7.76;56.83;98913.47;4994311;28;20070;-58
2021/01/21 08:13:44;;;;;;;4.30;2.70;;;;;;;7.77;57.26;98904.16;4992828;28;20053;-62
2021/01/21 08:16:17;;;;;;;4.72;2.60;;;;;;;7.94;56.06;98897.47;4991799;28;20792;-62
2021/01/21 08:18:45;;;;;;;4.10;2.65;;;;;;;7.96;55.92;98921.28;4994551;28;20062;-62
2021/01/21 08:21:25;;;;;;;7.55;2.85;;;;;;;8.09;55.85;98909.50;4975878;28;20050;-61
2021/01/21 08:23:55;;;;;;;5.35;3.00;;;;;;;8.09;55.42;98904.41;4990223;28;20073;-61
2021/01/21 08:26:23;;;;;;;6.55;3.20;;;;;;;8.16;55.14;98903.59;4978552;28;20054;-62
2021/01/21 08:28:50;;;;;;;6.15;3.20;;;;;;;8.08;55.88;98893.31;4992558;28;20466;-62
2021/01/21 08:31:19;;;;;;;6.07;2.83;;;;;;;8.13;55.68;98891.69;4995001;28;20133;-62
2021/01/21 08:33:56;;;;;;;6.20;2.70;;;;;;;8.25;55.42;98890.03;4993946;28;20058;-62
2021/01/21 08:36:25;;;;;;;4.28;2.80;;;;;;;8.09;56.41;98887.41;4995640;28;20046;-61
2021/01/21 08:38:54;;;;;;;5.05;2.80;;;;;;;8.16;55.68;98890.84;4992312;28;20050;-60
2021/01/21 08:41:22;;;;;;;7.32;3.67;;;;;;;8.31;55.52;98888.38;4994978;28;20105;-58
2021/01/21 08:43:50;;;;;;;6.10;3.10;;;;;;;8.45;54.63;98891.03;4993808;28;20135;-56
2021/01/21 08:46:20;;;;;;;5.72;3.80;;;;;;;8.45;54.24;98902.94;4994379;28;20053;-60
2021/01/21 08:48:49;;;;;;;3.70;2.70;;;;;;;8.58;54.25;98892.78;4992590;28;20049;-58
2021/01/21 08:51:29;;;;;;;5.28;2.75;;;;;;;8.42;56.26;98880.84;4978072;28;20050;-62
2021/01/21 08:54:19;;;;;;;4.03;2.70;;;;;;;8.65;54.65;98878.38;4993444;28;20058;-61
2021/01/21 08:57:05;;;;;;;5.15;3.45;;;;;;;8.68;54.56;98893.69;4993647;28;20134;-60
2021/01/21 08:59:46;;;;;;;5.20;2.88;;;;;;;8.70;54.80;98886.91;4991149;28;20045;-60
2021/01/21 09:02:41;;;;;;;4.90;2.92;;;;;;;8.86;54.74;98890.34;4992084;28;20056;-60
2021/01/21 09:05:08;;;;;;;4.82;2.90;;;;;;;9.03;53.73;98896.38;4983177;28;20108;-61
2021/01/21 09:07:37;;;;;;;6.30;3.45;;;;;;;9.37;53.12;98899.84;4989566;28;20035;-61
2021/01/21 09:10:12;;;;;;;4.82;3.15;;;;;;;9.56;52.43;98898.16;4994668;28;20069;-62
2021/01/21 09:12:40;;;;;;;3.58;2.75;;;;;;;9.53;52.68;98912.66;4992948;28;20046;-61
2021/01/21 09:15:09;;;;;;;3.83;2.92;;;;;;;10.25;49.74;98913.50;4976982;28;20439;-63
2021/01/21 09:17:38;;;;;;;6.75;2.90;;;;;;;10.77;48.52;98910.81;4993774;28;20816;-60
2021/01/21 09:20:19;;;;;;;5.57;3.58;;;;;;;10.91;48.13;98921.84;4992222;28;20050;-61
2021/01/21 09:22:50;;;;;;;7.10;3.22;;;;;;;10.91;48.75;98911.63;4991385;28;20121;-60
2021/01/21 09:25:25;;;;;;;4.20;2.92;;;;;;;11.00;47.28;98915.84;4994616;28;20797;-61
2021/01/21 09:27:53;;;;;;;4.38;3.05;;;;;;;11.60;46.50;98906.09;4992179;28;20054;-63
2021/01/21 09:30:21;;;;;;;5.00;3.40;;;;;;;12.24;45.42;98920.09;4994905;28;20058;-62
2021/01/21 09:32:47;;;;;;;4.88;3.60;;;;;;;11.67;45.68;98906.88;4992597;28;20105;-65
2021/01/21 09:35:22;;;;;;;4.05;2.95;;;;;;;11.10;46.64;98922.63;4994802;28;20069;-62
2021/01/21 09:37:54;;;;;;;4.35;2.67;;;;;;;11.92;45.65;98916.13;4991319;28;20058;-64
2021/01/21 09:40:23;;;;;;;4.20;3.30;;;;;;;12.87;43.49;98914.28;4994078;28;20082;-64
2021/01/21 09:42:55;;;;;;;3.60;2.85;;;;;;;12.93;43.01;98916.78;4971829;28;20056;-64
2021/01/21 09:45:22;;;;;;;3.42;2.60;;;;;;;12.29;43.80;98908.06;4994757;28;20489;-62
2021/01/21 09:47:52;;;;;;;3.88;2.78;;;;;;;12.09;44.70;98907.41;4991904;28;20527;-54
2021/01/21 09:50:20;;;;;;;4.75;2.25;;;;;;;11.72;45.42;98905.97;4994620;28;20141;-61
2021/01/21 09:52:47;;;;;;;5.38;2.88;;;;;;;11.40;46.23;98907.91;4992102;28;20238;-60
2021/01/21 09:55:14;;;;;;;5.47;2.53;;;;;;;11.24;46.81;98904.63;4962127;28;20570;-59
2021/01/21 09:57:41;;;;;;;5.28;2.28;;;;;;;11.34;46.29;98890.88;4984328;28;20058;-62
2021/01/21 10:00:10;;;;;;;3.50;2.60;;;;;;;11.92;45.54;98903.31;4981687;28;20062;-61
2021/01/21 10:02:37;;;;;;;6.00;2.72;;;;;;;11.84;45.14;98893.97;4984485;28;20414;-62
2021/01/21 10:05:05;;;;;;;4.82;2.63;;;;;;;11.67;45.77;98886.38;4983826;28;20130;-62
2021/01/21 10:07:31;;;;;;;3.20;2.40;;;;;;;11.74;45.87;98908.56;4979947;28;20077;-61
2021/01/21 10:09:58;;;;;;;3.13;2.58;;;;;;;11.62;46.04;98906.91;4984082;28;20485;-63
2021/01/21 10:12:26;;;;;;;3.67;2.53;;;;;;;11.50;46.37;98922.38;4983813;28;20431;-61
2021/01/21 10:14:55;;;;;;;4.47;2.65;;;;;;;11.44;46.21;98920.69;4984011;28;20133;-63
2021/01/21 10:17:26;;;;;;;6.28;2.70;;;;;;;11.42;46.79;98921.59;4982611;28;20046;-63
2021/01/21 10:19:53;;;;;;;5.50;2.95;;;;;;;11.87;46.18;98917.00;4983870;28;20542;-62
2021/01/21 10:22:19;;;;;;;5.90;2.72;;;;;;;12.55;44.89;98923.22;4987368;28;20046;-63
2021/01/21 10:24:47;;;;;;;4.53;3.05;;;;;;;12.85;43.89;98914.31;4988541;28;20050;-64
2021/01/21 10:27:13;;;;;;;3.55;2.50;;;;;;;12.79;43.43;98916.94;4992625;28;20104;-65
2021/01/21 10:29:41;;;;;;;2.85;2.40;;;;;;;12.85;43.54;98908.31;4990341;28;20046;-61
2021/01/21 10:32:08;;;;;;;4.63;2.78;;;;;;;12.99;43.44;98907.28;4991766;28;20061;-64
2021/01/21 10:34:37;;;;;;;3.65;2.30;;;;;;;13.40;42.27;98910.16;4986846;28;20445;-64
2021/01/21 10:37:04;;;;;;;5.03;2.60;;;;;;;13.56;42.40;98921.09;4991410;28;20050;-64
2021/01/21 10:39:31;;;;;;;3.28;2.30;;;;;;;13.07;43.05;98919.16;4991533;28;20128;-64
2021/01/21 10:41:58;;;;;;;2.17;1.88;;;;;;;12.96;43.81;98911.59;4989029;28;20057;-64
2021/01/21 10:44:29;;;;;;;2.40;2.20;;;;;;;12.78;44.13;98920.38;4989432;28;20471;-63
2021/01/21 10:46:56;;;;;;;2.55;2.20;;;;;;;12.53;44.39;98926.69;4988667;28;20066;-64
2021/01/21 10:49:24;;;;;;;2.28;1.85;;;;;;;12.78;44.09;98915.25;4988215;28;20049;-62
2021/01/21 10:51:51;;;;;;;2.65;1.80;;;;;;;12.91;43.86;98927.06;4989826;28;20070;-64
2021/01/21 10:54:18;;;;;;;2.30;1.63;;;;;;;12.82;42.98;98913.50;4993396;28;20137;-65
2021/01/21 10:56:47;;;;;;;3.35;1.80;;;;;;;12.79;43.82;98913.53;4988700;28;20066;-65
2021/01/21 10:59:14;;;;;;;4.57;1.98;;;;;;;12.71;44.26;98922.19;4991878;28;20097;-65
2021/01/21 11:01:41;;;;;;;2.60;1.77;;;;;;;12.65;44.30;98919.66;4990440;28;20058;-66
2021/01/21 11:04:10;;;;;;;4.30;2.60;;;;;;;12.67;44.05;98912.81;4992548;28;20046;-64
2021/01/21 11:06:39;;;;;;;3.05;2.03;;;;;;;12.72;44.22;98908.47;4988956;28;20056;-61
2021/01/21 11:09:10;;;;;;;1.95;1.52;;;;;;;12.78;43.87;98922.09;4990176;28;20046;-64
2021/01/21 11:11:41;;;;;;;2.65;1.50;;;;;;;12.77;44.49;98916.13;4989372;28;20337;-62
2021/01/21 11:14:09;;;;;;;2.60;1.48;;;;;;;12.70;43.89;98917.03;4990322;28;20065;-63
2021/01/21 11:16:38;;;;;;;1.73;1.35;;;;;;;12.84;44.10;98912.59;4989337;28;20133;-64
2021/01/21 11:19:06;;;;;;;2.05;1.63;;;;;;;12.84;44.16;98920.28;4989830;28;20132;-63
2021/01/21 11:21:36;;;;;;;1.98;1.67;;;;;;;12.91;44.05;98906.53;4989818;28;20401;-64
2021/01/21 11:24:06;;;;;;;2.33;1.30;;;;;;;12.86;43.80;98910.03;4973962;28;20050;-61
2021/01/21 11:26:34;;;;;;;3.45;1.77;;;;;;;13.05;43.76;98898.63;4989839;28;20050;-62
2021/01/21 11:29:03;;;;;;;4.78;1.60;;;;;;;13.14;43.22;98905.38;4989261;28;20291;-62
2021/01/21 11:31:31;;;;;;;1.77;1.25;;;;;;;13.16;43.96;98898.50;4990281;28;20046;-64
2021/01/21 11:33:59;;;;;;;2.75;2.00;;;;;;;13.78;41.75;98885.63;4988643;28;20073;-62
2021/01/21 11:36:28;;;;;;;5.45;1.60;;;;;;;13.98;40.72;98881.81;4983997;28;20314;-62
2021/01/21 11:38:55;;;;;;;2.28;1.70;;;;;;;14.60;40.01;98901.31;4981216;28;20053;-61
2021/01/21 11:41:21;;;;;;;2.55;1.70;;;;;;;15.44;38.12;98889.22;4982177;28;20051;-61
2021/01/21 11:43:48;;;;;;;2.42;1.60;;;;;;;17.05;35.24;98897.09;4986264;28;20053;-61
2021/01/21 11:46:15;;;;;;;2.00;1.80;;;;;;;17.19;35.03;98881.13;4987350;28;20050;-54
2021/01/21 11:48:41;;;;;;;1.75;1.52;;;;;;;17.68;34.47;98886.53;4985963;28;20075;-62
2021/01/21 11:51:08;;;;;;;3.00;1.50;;;;;;;18.16;32.75;98891.84;4989797;28;20042;-59
2021/01/21 11:53:34;;;;;;;5.78;1.73;;;;;;;16.97;35.06;98874.94;4987150;28;20542;-60